Time;durP1;ratioP1;P1;durP2;ratioP2;P2;SDS_P1;SDS_P2;PMS_P1;PMS_P2;Temp;Humidity;BMP_temperature;BMP_pressure;BME280_temperature;BME280_humidity;BME280_pressure;Samples;Min_cycle;Max_cycle;Signal;HPM_P1;HPM_P2
2021/03/11 00:00:15;;;;;;;39.03;19.35;;;3.40;99.90;;;;;;5011107;28;20076;-75
2021/03/11 00:02:41;;;;;;;39.17;19.50;;;3.50;99.90;;;;;;5017039;28;20065;-75
2021/03/11 00:05:13;;;;;;;39.35;19.30;;;3.50;99.90;;;;;;5016890;28;20037;-75
2021/03/11 00:07:39;;;;;;;44.50;19.05;;;3.50;99.90;;;;;;5017164;28;20038;-75
2021/03/11 00:10:08;;;;;;;38.75;19.48;;;3.50;99.90;;;;;;4999374;28;20029;-75
2021/03/11 00:12:34;;;;;;;35.92;19.13;;;3.50;99.90;;;;;;5000328;28;20033;-75
2021/03/11 00:14:59;;;;;;;40.80;18.83;;;3.50;99.90;;;;;;5017100;28;20409;-75
2021/03/11 00:17:26;;;;;;;37.47;18.75;;;3.50;99.90;;;;;;4999736;28;20532;-77
2021/03/11 00:19:51;;;;;;;39.55;19.92;;;3.60;99.90;;;;;;5015561;28;20044;-77
2021/03/11 00:22:17;;;;;;;40.47;19.83;;;3.60;99.90;;;;;;5015637;28;20033;-77
2021/03/11 00:24:43;;;;;;;42.17;19.85;;;3.60;99.90;;;;;;4995664;28;20370;-77
2021/03/11 00:27:08;;;;;;;43.30;20.30;;;3.50;99.90;;;;;;5017055;28;20033;-77
2021/03/11 00:29:34;;;;;;;35.75;18.75;;;3.50;99.90;;;;;;5017512;28;20034;-77
2021/03/11 00:32:00;;;;;;;40.55;19.08;;;3.50;99.90;;;;;;5016530;28;20845;-77
2021/03/11 00:34:26;;;;;;;39.08;19.77;;;3.40;99.90;;;;;;5015434;28;20060;-77
2021/03/11 00:36:52;;;;;;;41.83;20.10;;;3.50;99.90;;;;;;4994324;28;20140;-77
2021/03/11 00:39:18;;;;;;;43.33;19.65;;;3.50;99.90;;;;;;5006451;28;20041;-77
2021/03/11 00:41:44;;;;;;;45.40;20.27;;;3.50;99.90;;;;;;5017170;28;20049;-77
2021/03/11 00:44:09;;;;;;;43.28;20.13;;;3.50;99.90;;;;;;5015603;28;20041;-77
2021/03/11 00:46:35;;;;;;;40.80;20.20;;;3.50;99.90;;;;;;5014455;28;20040;-74
2021/03/11 00:49:01;;;;;;;42.63;20.33;;;3.50;99.90;;;;;;5015259;28;20843;-75
2021/03/11 00:51:26;;;;;;;40.33;19.00;;;3.60;99.90;;;;;;5015651;28;20032;-74
2021/03/11 00:53:54;;;;;;;46.30;21.25;;;3.50;99.90;;;;;;5014671;28;20959;-74
2021/03/11 00:56:19;;;;;;;48.25;19.85;;;3.60;99.90;;;;;;4998730;28;20109;-74
2021/03/11 00:58:45;;;;;;;42.63;20.88;;;3.50;99.90;;;;;;5016758;28;20038;-76
2021/03/11 01:01:11;;;;;;;45.60;20.00;;;3.60;99.90;;;;;;5016671;28;20034;-74
2021/03/11 01:03:49;;;;;;;41.30;20.40;;;3.60;99.90;;;;;;4983502;28;20156;-76
2021/03/11 01:06:14;;;;;;;47.25;21.50;;;3.60;99.90;;;;;;5009486;28;20093;-77
2021/03/11 01:08:42;;;;;;;45.67;20.20;;;3.70;99.90;;;;;;5016385;28;20049;-76
2021/03/11 01:11:08;;;;;;;46.28;20.60;;;3.70;99.90;;;;;;5021030;28;20047;-76
2021/03/11 01:13:33;;;;;;;44.83;21.38;;;3.80;99.90;;;;;;5020810;28;20823;-76
2021/03/11 01:15:59;;;;;;;44.50;20.50;;;3.70;99.90;;;;;;5017965;28;20030;-76
2021/03/11 01:18:26;;;;;;;47.03;21.95;;;3.80;99.90;;;;;;5020106;28;20037;-76
2021/03/11 01:20:52;;;;;;;47.38;21.95;;;3.70;99.90;;;;;;5018634;28;20551;-76
2021/03/11 01:23:18;;;;;;;45.03;21.42;;;3.70;99.90;;;;;;5002223;28;20041;-77
2021/03/11 01:25:43;;;;;;;45.50;20.77;;;3.80;99.90;;;;;;5017735;28;20072;-76
2021/03/11 01:28:09;;;;;;;45.22;20.90;;;3.80;99.90;;;;;;5019107;28;20812;-77
2021/03/11 01:30:34;;;;;;;50.00;23.55;;;3.80;99.90;;;;;;5002555;28;20038;-77
2021/03/11 01:33:00;;;;;;;44.95;21.10;;;3.90;99.90;;;;;;5018370;28;20776;-77
2021/03/11 01:35:27;;;;;;;46.25;21.30;;;3.90;99.90;;;;;;5014872;28;20059;-76
2021/03/11 01:37:52;;;;;;;47.53;22.02;;;3.90;99.90;;;;;;5015537;28;20112;-74
2021/03/11 01:40:18;;;;;;;45.88;21.52;;;3.90;99.90;;;;;;5001413;28;20041;-75
2021/03/11 01:42:44;;;;;;;45.78;21.45;;;3.90;99.90;;;;;;5018375;28;20139;-77
2021/03/11 01:45:10;;;;;;;44.47;20.92;;;4.00;99.90;;;;;;5018925;28;20037;-76
2021/03/11 01:47:37;;;;;;;46.63;21.83;;;4.00;99.90;;;;;;4999668;28;20138;-76
2021/03/11 01:50:05;;;;;;;46.78;22.40;;;4.10;99.90;;;;;;5018099;28;20069;-76
2021/03/11 01:52:33;;;;;;;47.95;22.63;;;4.10;99.90;;;;;;5018118;28;20140;-76
2021/03/11 01:54:58;;;;;;;49.22;22.02;;;4.20;99.90;;;;;;5000945;28;20033;-77
2021/03/11 01:57:25;;;;;;;46.15;21.92;;;4.10;99.90;;;;;;4985648;28;20123;-77
2021/03/11 01:59:51;;;;;;;44.90;21.42;;;4.10;99.90;;;;;;5019573;28;20082;-77
2021/03/11 02:02:17;;;;;;;51.25;22.17;;;4.10;99.90;;;;;;5014881;28;20101;-76
2021/03/11 02:04:44;;;;;;;48.70;21.45;;;4.10;99.90;;;;;;5019827;28;20040;-75
2021/03/11 02:07:09;;;;;;;45.50;21.08;;;4.10;99.90;;;;;;5001483;28;20033;-76
2021/03/11 02:09:35;;;;;;;50.13;23.00;;;4.10;99.90;;;;;;5019383;28;20067;-77
2021/03/11 02:12:26;;;;;;;49.40;21.75;;;4.30;99.90;;;;;;5002306;28;20107;-77
2021/03/11 02:15:17;;;;;;;47.70;22.48;;;4.30;99.90;;;;;;5019104;28;20094;-77
2021/03/11 02:17:53;;;;;;;50.65;22.35;;;4.20;99.90;;;;;;5018051;28;20037;-77
2021/03/11 02:20:34;;;;;;;46.78;21.58;;;4.30;99.90;;;;;;5019144;28;20041;-77
2021/03/11 02:23:28;;;;;;;42.33;21.15;;;4.20;99.90;;;;;;5019081;28;20449;-77
2021/03/11 02:26:04;;;;;;;50.90;21.67;;;4.20;99.90;;;;;;5017055;28;20033;-77
2021/03/11 02:29:03;;;;;;;48.47;21.58;;;4.20;99.90;;;;;;5019740;28;20040;-76
2021/03/11 02:31:32;;;;;;;49.67;23.13;;;4.20;99.90;;;;;;5019130;28;20039;-77
2021/03/11 02:34:00;;;;;;;48.45;22.52;;;4.20;99.90;;;;;;5019372;28;20120;-76
2021/03/11 02:36:27;;;;;;;49.70;22.45;;;4.10;99.90;;;;;;5000275;28;20130;-76
2021/03/11 02:38:55;;;;;;;46.92;22.05;;;4.20;99.90;;;;;;5001337;28;20033;-74
2021/03/11 02:41:22;;;;;;;48.28;21.63;;;4.20;99.90;;;;;;5019152;28;20110;-73
2021/03/11 02:43:48;;;;;;;49.28;21.98;;;4.30;99.90;;;;;;5016266;28;20029;-74
2021/03/11 02:46:18;;;;;;;48.08;22.15;;;4.30;99.90;;;;;;5018423;28;20040;-77
2021/03/11 02:48:47;;;;;;;50.13;22.15;;;4.30;99.90;;;;;;4984876;28;20069;-73
2021/03/11 02:51:13;;;;;;;46.05;21.90;;;4.30;99.90;;;;;;5018002;28;20040;-74
2021/03/11 02:53:40;;;;;;;45.30;21.85;;;4.40;99.90;;;;;;4999932;28;20042;-73
2021/03/11 02:56:08;;;;;;;43.90;21.73;;;4.40;99.90;;;;;;5018528;28;20033;-74
2021/03/11 02:58:34;;;;;;;52.05;22.40;;;4.30;99.90;;;;;;5019017;28;20026;-73
2021/03/11 03:01:01;;;;;;;45.78;22.15;;;4.30;99.90;;;;;;5017108;28;20146;-74
2021/03/11 03:03:29;;;;;;;49.25;22.95;;;4.40;99.90;;;;;;5016334;28;20033;-74
2021/03/11 03:05:57;;;;;;;53.75;23.33;;;4.20;99.90;;;;;;5015442;28;20155;-75
2021/03/11 03:08:24;;;;;;;49.92;22.90;;;4.10;99.90;;;;;;5012765;28;20067;-75
2021/03/11 03:10:53;;;;;;;50.92;22.48;;;4.10;99.90;;;;;;5013481;28;20033;-74
2021/03/11 03:13:19;;;;;;;52.13;24.65;;;4.10;99.90;;;;;;5018048;28;20048;-75
2021/03/11 03:15:44;;;;;;;48.35;22.67;;;4.00;99.90;;;;;;5017569;28;20048;-74
2021/03/11 03:18:12;;;;;;;52.92;23.63;;;3.90;99.90;;;;;;5016857;28;20044;-75
2021/03/11 03:20:38;;;;;;;52.83;23.65;;;3.90;99.90;;;;;;5015930;28;20057;-75
2021/03/11 03:23:06;;;;;;;53.80;24.02;;;3.90;99.90;;;;;;5017648;28;20040;-75
2021/03/11 03:25:31;;;;;;;51.85;23.45;;;3.90;99.90;;;;;;4999301;28;20063;-77
2021/03/11 03:27:58;;;;;;;55.75;24.52;;;3.80;99.90;;;;;;4982746;28;20691;-75
2021/03/11 03:30:25;;;;;;;54.88;25.20;;;3.80;99.90;;;;;;4999127;28;20037;-75
2021/03/11 03:32:51;;;;;;;55.95;25.30;;;3.80;99.90;;;;;;5016987;28;20470;-75
2021/03/11 03:35:18;;;;;;;58.40;25.15;;;3.80;99.90;;;;;;5019358;28;20029;-74
2021/03/11 03:37:44;;;;;;;56.22;24.58;;;3.70;99.90;;;;;;5017339;28;20120;-75
2021/03/11 03:40:12;;;;;;;55.85;24.40;;;3.70;99.90;;;;;;5018269;28;20517;-75
2021/03/11 03:43:00;;;;;;;54.35;24.27;;;3.70;99.90;;;;;;5000335;28;20120;-74
2021/03/11 03:45:31;;;;;;;59.17;25.80;;;3.50;99.90;;;;;;5013234;28;20137;-75
2021/03/11 03:47:59;;;;;;;65.30;26.80;;;3.50;99.90;;;;;;4999572;28;20068;-75
2021/03/11 03:50:25;;;;;;;57.53;26.45;;;3.50;99.90;;;;;;5016711;28;20128;-75
2021/03/11 03:52:53;;;;;;;60.13;25.67;;;3.50;99.90;;;;;;4999634;28;20721;-76
2021/03/11 03:55:20;;;;;;;58.72;25.65;;;3.50;99.90;;;;;;4998605;28;20034;-75
2021/03/11 03:57:50;;;;;;;58.63;27.10;;;3.40;99.90;;;;;;4982808;28;20065;-76
2021/03/11 04:00:18;;;;;;;63.45;28.00;;;3.40;99.90;;;;;;4998725;28;20038;-76
2021/03/11 04:02:44;;;;;;;62.53;26.52;;;3.50;99.90;;;;;;5016989;28;20457;-76
2021/03/11 04:05:11;;;;;;;61.70;27.50;;;3.40;99.90;;;;;;5016090;28;20038;-75
2021/03/11 04:07:38;;;;;;;61.25;26.52;;;3.40;99.90;;;;;;5017352;28;20033;-76
2021/03/11 04:10:06;;;;;;;70.88;26.92;;;3.50;99.90;;;;;;5014082;28;20029;-75
2021/03/11 04:12:32;;;;;;;60.55;27.70;;;3.50;99.90;;;;;;5016601;28;20489;-75
2021/03/11 04:14:58;;;;;;;72.13;28.42;;;3.50;99.90;;;;;;4998191;28;20056;-75
2021/03/11 04:17:26;;;;;;;62.58;27.92;;;3.40;99.90;;;;;;5016353;28;20041;-75
2021/03/11 04:19:53;;;;;;;62.90;26.83;;;3.50;99.90;;;;;;5011257;28;20057;-75
2021/03/11 04:22:19;;;;;;;68.22;28.90;;;3.50;99.90;;;;;;4998255;28;20042;-76
2021/03/11 04:24:45;;;;;;;57.88;26.65;;;3.50;99.90;;;;;;4998882;28;20048;-76
2021/03/11 04:27:11;;;;;;;64.05;27.50;;;3.50;99.90;;;;;;5014496;28;20038;-76
2021/03/11 04:29:38;;;;;;;65.95;29.00;;;3.50;99.90;;;;;;5015053;28;20668;-76
2021/03/11 04:32:04;;;;;;;69.85;29.50;;;3.60;99.90;;;;;;5016518;28;20109;-76
2021/03/11 04:34:32;;;;;;;65.32;27.33;;;3.50;99.90;;;;;;4997789;28;20042;-76
2021/03/11 04:37:00;;;;;;;65.18;26.17;;;3.60;99.90;;;;;;4993095;28;20107;-77
2021/03/11 04:39:27;;;;;;;57.05;26.33;;;3.60;99.90;;;;;;5005143;28;20121;-77
2021/03/11 04:41:53;;;;;;;65.50;26.80;;;3.70;99.90;;;;;;4998516;28;20464;-76
2021/03/11 04:44:26;;;;;;;58.88;26.35;;;3.70;99.90;;;;;;5010284;28;20998;-77
2021/03/11 04:46:54;;;;;;;56.38;25.17;;;3.70;99.90;;;;;;5015104;28;20048;-75
2021/03/11 04:49:21;;;;;;;59.05;25.40;;;3.80;99.90;;;;;;5017692;28;20029;-76
2021/03/11 04:51:48;;;;;;;54.47;24.20;;;3.90;99.90;;;;;;5017014;28;20032;-77
2021/03/11 04:54:13;;;;;;;52.67;24.38;;;3.90;99.90;;;;;;5020490;28;20119;-76
2021/03/11 04:56:42;;;;;;;55.53;24.27;;;4.00;99.90;;;;;;5014277;28;20041;-75
2021/03/11 04:59:11;;;;;;;61.55;25.30;;;4.00;99.90;;;;;;5014228;28;20037;-76
2021/03/11 05:01:41;;;;;;;60.08;24.70;;;4.00;99.90;;;;;;5011982;28;20030;-74
2021/03/11 05:04:09;;;;;;;63.00;26.08;;;3.90;99.90;;;;;;4997301;28;20107;-76
2021/03/11 05:06:35;;;;;;;57.63;24.73;;;4.10;99.90;;;;;;4983619;28;20039;-77
2021/03/11 05:09:01;;;;;;;61.60;26.23;;;4.00;99.90;;;;;;4995688;28;20034;-76
2021/03/11 05:11:26;;;;;;;60.58;25.52;;;3.90;99.90;;;;;;5019682;28;20037;-76
2021/03/11 05:13:52;;;;;;;58.08;25.17;;;3.90;99.90;;;;;;5000154;28;20029;-75
2021/03/11 05:16:18;;;;;;;62.25;27.35;;;3.90;99.90;;;;;;5001086;28;20508;-76
2021/03/11 05:18:43;;;;;;;61.78;26.08;;;3.90;99.90;;;;;;4977813;28;20737;-77
2021/03/11 05:21:09;;;;;;;65.80;26.45;;;3.90;99.90;;;;;;5015482;28;20825;-74
2021/03/11 05:23:35;;;;;;;57.45;26.08;;;3.90;99.90;;;;;;5016774;28;20044;-75
2021/03/11 05:26:01;;;;;;;69.75;29.35;;;4.00;99.90;;;;;;4988205;28;20041;-76
2021/03/11 05:28:27;;;;;;;60.60;26.40;;;4.00;99.90;;;;;;5019562;28;20120;-77
2021/03/11 05:30:53;;;;;;;63.05;28.02;;;4.00;99.90;;;;;;5020157;28;20033;-75
2021/03/11 05:33:18;;;;;;;64.28;28.38;;;4.00;99.90;;;;;;5014684;28;20060;-77
2021/03/11 05:35:44;;;;;;;64.82;29.05;;;4.10;99.90;;;;;;5018367;28;20033;-75
2021/03/11 05:38:10;;;;;;;62.92;28.05;;;4.10;99.90;;;;;;5000023;28;20048;-75
2021/03/11 05:40:37;;;;;;;64.70;29.63;;;4.10;99.90;;;;;;5016283;28;20540;-73
2021/03/11 05:43:05;;;;;;;64.85;27.48;;;4.10;99.90;;;;;;5001239;28;20048;-73
2021/03/11 05:45:31;;;;;;;64.70;26.70;;;4.10;99.90;;;;;;5020254;28;20041;-76
2021/03/11 05:47:57;;;;;;;69.68;28.13;;;4.10;99.90;;;;;;4986996;28;20037;-77
2021/03/11 05:50:23;;;;;;;69.63;29.33;;;4.10;99.90;;;;;;5000883;28;20040;-79
2021/03/11 05:52:51;;;;;;;66.43;26.88;;;4.10;99.90;;;;;;5012346;28;20037;-76
2021/03/11 05:55:18;;;;;;;66.03;28.05;;;4.00;99.90;;;;;;4995630;28;20748;-76
2021/03/11 05:57:45;;;;;;;69.15;28.15;;;3.90;99.90;;;;;;4975395;28;20076;-76
2021/03/11 06:00:14;;;;;;;75.13;30.98;;;4.00;99.90;;;;;;4997882;28;20132;-76
2021/03/11 06:02:42;;;;;;;79.57;31.70;;;4.00;99.90;;;;;;5013155;28;20037;-77
2021/03/11 06:05:09;;;;;;;74.00;30.35;;;4.00;99.90;;;;;;4998510;28;20044;-74
2021/03/11 06:07:35;;;;;;;76.28;29.70;;;4.00;99.90;;;;;;4994142;28;20116;-75
2021/03/11 06:10:03;;;;;;;72.50;28.70;;;4.00;99.90;;;;;;4999432;28;20707;-76
2021/03/11 06:12:30;;;;;;;76.13;31.20;;;4.00;99.90;;;;;;5005576;28;20037;-75
2021/03/11 06:15:28;;;;;;;76.28;31.45;;;4.00;99.90;;;;;;4983342;28;20029;-76
2021/03/11 06:17:55;;;;;;;70.53;29.45;;;4.00;99.90;;;;;;4992970;28;20262;-76
2021/03/11 06:20:21;;;;;;;68.47;30.13;;;4.00;99.90;;;;;;4999785;28;20045;-75
2021/03/11 06:22:48;;;;;;;71.15;29.63;;;4.00;99.90;;;;;;4997874;28;20136;-72
2021/03/11 06:25:15;;;;;;;76.22;30.63;;;4.00;99.90;;;;;;4994803;28;20083;-74
2021/03/11 06:27:50;;;;;;;81.50;30.05;;;4.00;99.90;;;;;;4991993;28;20038;-76
2021/03/11 06:30:37;;;;;;;69.38;29.80;;;3.90;99.90;;;;;;4993937;28;20041;-74
2021/03/11 06:33:05;;;;;;;79.90;31.83;;;3.90;99.90;;;;;;4978689;28;20076;-79
2021/03/11 06:35:38;;;;;;;91.88;33.83;;;3.90;99.90;;;;;;4964282;28;563591;-71
2021/03/11 06:38:03;;;;;;;81.63;31.20;;;3.90;99.90;;;;;;5019371;28;20545;-74
2021/03/11 06:40:30;;;;;;;85.55;32.40;;;3.90;99.90;;;;;;5014389;28;20033;-70
2021/03/11 06:43:13;;;;;;;84.28;32.13;;;3.90;99.90;;;;;;5008397;28;20029;-74
2021/03/11 06:45:39;;;;;;;88.57;31.80;;;4.00;99.90;;;;;;5013647;28;20765;-74
2021/03/11 06:48:26;;;;;;;83.68;31.30;;;4.00;99.90;;;;;;5014811;28;20030;-74
2021/03/11 06:51:00;;;;;;;72.43;29.30;;;4.00;99.90;;;;;;5011272;28;20025;-75
2021/03/11 06:53:26;;;;;;;77.35;30.63;;;4.00;99.90;;;;;;5007107;28;20670;-74
2021/03/11 06:55:52;;;;;;;73.10;29.88;;;4.10;99.90;;;;;;5011741;28;20704;-73
2021/03/11 06:58:20;;;;;;;77.70;29.38;;;4.10;99.90;;;;;;5010216;28;20048;-74
2021/03/11 07:00:47;;;;;;;74.97;28.48;;;4.10;99.90;;;;;;5017165;28;20041;-73
2021/03/11 07:03:13;;;;;;;77.97;31.27;;;4.20;99.90;;;;;;4999105;28;20037;-74
2021/03/11 07:05:44;;;;;;;73.30;28.10;;;4.20;99.90;;;;;;5013967;28;20037;-74
2021/03/11 07:08:14;;;;;;;74.20;29.60;;;4.20;99.90;;;;;;4997557;28;20526;-74
2021/03/11 07:10:45;;;;;;;79.40;29.73;;;4.30;99.90;;;;;;5016976;28;20033;-74
2021/03/11 07:13:12;;;;;;;73.30;29.65;;;4.30;99.90;;;;;;5015000;28;20557;-74
2021/03/11 07:15:38;;;;;;;72.97;29.48;;;4.40;99.90;;;;;;5011409;28;20105;-74
2021/03/11 07:18:19;;;;;;;70.45;28.30;;;4.40;99.90;;;;;;5017241;28;20711;-74
2021/03/11 07:20:45;;;;;;;64.22;26.50;;;4.50;99.90;;;;;;5017076;28;20068;-73
2021/03/11 07:23:14;;;;;;;74.85;28.15;;;4.50;99.90;;;;;;5010402;28;20112;-74
2021/03/11 07:25:42;;;;;;;60.83;26.58;;;4.60;99.90;;;;;;4998373;28;20061;-75
2021/03/11 07:28:10;;;;;;;60.35;26.27;;;4.60;99.90;;;;;;4991143;28;20046;-74
2021/03/11 07:30:52;;;;;;;66.07;26.48;;;4.70;99.90;;;;;;5014780;28;20040;-75
2021/03/11 07:33:19;;;;;;;59.97;25.20;;;4.70;99.90;;;;;;5014532;28;20040;-73
2021/03/11 07:35:47;;;;;;;58.13;24.33;;;4.70;99.90;;;;;;5011079;28;20494;-74
2021/03/11 07:38:16;;;;;;;59.65;23.88;;;4.80;99.90;;;;;;4993818;28;20573;-75
2021/03/11 07:40:45;;;;;;;56.55;23.77;;;4.80;99.90;;;;;;5016337;28;20037;-74
2021/03/11 07:43:12;;;;;;;56.72;23.80;;;4.90;99.90;;;;;;5016044;28;20145;-74
2021/03/11 07:45:38;;;;;;;54.88;24.00;;;5.00;99.90;;;;;;5016145;28;20033;-71
2021/03/11 07:48:04;;;;;;;60.58;24.63;;;5.00;99.90;;;;;;5014625;28;20053;-75
2021/03/11 07:50:30;;;;;;;56.65;24.33;;;5.10;99.90;;;;;;5016464;28;20044;-77
2021/03/11 07:52:59;;;;;;;56.20;23.13;;;5.00;99.90;;;;;;5016241;28;20079;-73
2021/03/11 07:55:29;;;;;;;52.33;22.83;;;5.00;99.90;;;;;;4988080;28;20044;-72
2021/03/11 07:57:57;;;;;;;64.32;29.02;;;5.10;99.90;;;;;;5008843;28;20572;-74
2021/03/11 08:00:28;;;;;;;52.25;23.08;;;5.10;99.90;;;;;;5016423;28;20041;-75
2021/03/11 08:03:05;;;;;;;55.72;23.65;;;5.20;99.90;;;;;;5008429;28;20780;-74
2021/03/11 08:05:31;;;;;;;57.78;23.70;;;5.20;99.90;;;;;;5012605;28;20041;-75
2021/03/11 08:08:19;;;;;;;52.47;23.73;;;5.20;99.90;;;;;;4989076;28;20029;-75
2021/03/11 08:10:49;;;;;;;52.53;22.52;;;5.20;99.90;;;;;;5016623;28;20057;-75
2021/03/11 08:13:36;;;;;;;53.05;23.15;;;5.20;99.90;;;;;;5011406;28;20034;-75
2021/03/11 08:16:22;;;;;;;50.03;21.38;;;5.30;99.90;;;;;;5007784;28;20045;-75
2021/03/11 08:18:52;;;;;;;54.28;23.13;;;5.30;99.90;;;;;;5010995;28;20037;-75
2021/03/11 08:21:23;;;;;;;54.85;22.42;;;5.20;99.90;;;;;;5016345;28;20038;-75
2021/03/11 08:23:50;;;;;;;46.78;21.65;;;5.20;99.90;;;;;;5010815;28;20033;-75
2021/03/11 08:26:38;;;;;;;50.67;21.88;;;5.20;99.90;;;;;;5012977;28;20021;-75
2021/03/11 08:29:17;;;;;;;52.00;22.42;;;5.30;99.90;;;;;;4998111;28;20041;-75
2021/03/11 08:31:45;;;;;;;52.85;21.55;;;5.20;99.90;;;;;;5007687;28;20042;-76
2021/03/11 08:34:33;;;;;;;52.45;23.35;;;5.30;99.90;;;;;;5015414;28;20064;-76
2021/03/11 08:37:19;;;;;;;51.70;22.58;;;5.20;99.90;;;;;;4993552;28;20037;-75
2021/03/11 08:39:45;;;;;;;57.45;22.63;;;5.40;99.90;;;;;;5010747;28;20823;-75
2021/03/11 08:42:49;;;;;;;54.88;22.40;;;5.30;99.90;;;;;;5010923;28;20044;-75
2021/03/11 08:45:36;;;;;;;48.53;21.88;;;5.30;99.90;;;;;;5008539;28;20060;-75
2021/03/11 08:48:13;;;;;;;50.88;21.90;;;5.40;99.90;;;;;;5012950;28;20041;-75
2021/03/11 08:50:41;;;;;;;49.67;19.92;;;5.40;99.90;;;;;;4991325;28;20033;-76
2021/03/11 08:53:07;;;;;;;47.58;21.77;;;5.40;99.90;;;;;;5013303;28;20812;-73
2021/03/11 08:55:39;;;;;;;51.15;22.00;;;5.40;99.90;;;;;;4969091;28;20038;-74
2021/03/11 08:58:24;;;;;;;46.88;20.73;;;5.40;99.90;;;;;;5015603;28;20056;-74
2021/03/11 09:00:55;;;;;;;42.65;19.92;;;5.40;99.90;;;;;;4998500;28;20496;-75
2021/03/11 09:03:49;;;;;;;49.42;20.85;;;5.40;99.90;;;;;;5015669;28;20045;-75
2021/03/11 09:06:17;;;;;;;50.22;20.63;;;5.40;99.90;;;;;;5015437;28;20081;-75
2021/03/11 09:08:54;;;;;;;47.13;20.60;;;5.50;99.90;;;;;;4978878;28;20081;-74
2021/03/11 09:11:23;;;;;;;47.47;21.05;;;5.50;99.90;;;;;;5011494;28;20037;-74
2021/03/11 09:13:53;;;;;;;52.05;21.50;;;5.60;99.90;;;;;;4993855;28;20034;-75
2021/03/11 09:16:28;;;;;;;42.50;20.20;;;5.60;99.90;;;;;;5014399;28;20033;-76
2021/03/11 09:18:57;;;;;;;44.58;19.63;;;5.60;99.90;;;;;;5016362;28;20036;-75
2021/03/11 09:21:44;;;;;;;44.67;19.85;;;5.50;99.90;;;;;;5007243;28;20041;-74
2021/03/11 09:24:20;;;;;;;43.40;19.17;;;5.60;99.90;;;;;;5012851;28;20507;-74
2021/03/11 09:26:46;;;;;;;44.22;17.88;;;5.60;99.90;;;;;;5013239;28;20121;-73
2021/03/11 09:29:14;;;;;;;43.95;19.05;;;5.70;99.90;;;;;;5012719;28;20037;-74
2021/03/11 09:31:40;;;;;;;42.25;18.77;;;5.70;99.90;;;;;;4994590;28;20068;-75
2021/03/11 09:34:07;;;;;;;42.60;18.92;;;5.80;99.90;;;;;;5012003;28;20129;-74
2021/03/11 09:36:33;;;;;;;39.30;18.80;;;5.80;99.90;;;;;;5012406;28;20048;-78
2021/03/11 09:39:06;;;;;;;42.25;19.48;;;5.90;99.90;;;;;;5017625;28;20033;-77
2021/03/11 09:41:32;;;;;;;42.05;18.73;;;5.90;99.90;;;;;;5017804;28;20663;-78
2021/03/11 09:44:08;;;;;;;40.72;17.50;;;5.90;99.90;;;;;;4992727;28;20078;-77
2021/03/11 09:46:35;;;;;;;37.42;18.08;;;5.90;99.90;;;;;;5011217;28;20845;-77
2021/03/11 09:49:01;;;;;;;44.60;17.75;;;6.00;99.90;;;;;;4999546;28;20033;-76
2021/03/11 09:51:31;;;;;;;38.08;17.67;;;6.00;99.90;;;;;;5019199;28;20025;-78
2021/03/11 09:54:04;;;;;;;36.03;18.17;;;6.10;99.90;;;;;;4983627;28;20701;-79
2021/03/11 09:56:41;;;;;;;34.63;16.75;;;6.10;99.90;;;;;;4998464;28;20044;-77
2021/03/11 09:59:09;;;;;;;34.15;17.67;;;6.00;99.90;;;;;;5000573;28;20236;-76
2021/03/11 10:01:39;;;;;;;38.97;17.65;;;6.20;99.90;;;;;;5008195;28;20470;-76
2021/03/11 10:04:19;;;;;;;38.08;16.88;;;6.20;99.90;;;;;;4997098;28;20033;-76
2021/03/11 10:06:52;;;;;;;38.58;17.10;;;6.20;99.90;;;;;;4991903;28;20041;-76
2021/03/11 10:09:18;;;;;;;42.75;17.48;;;6.30;99.90;;;;;;5011524;28;20030;-76
2021/03/11 10:11:47;;;;;;;38.45;17.65;;;6.30;99.90;;;;;;4995298;28;20037;-76
2021/03/11 10:14:31;;;;;;;34.10;15.85;;;6.40;99.90;;;;;;4998457;28;20037;-76
2021/03/11 10:17:02;;;;;;;32.67;16.15;;;6.40;99.90;;;;;;5013110;28;20486;-76
2021/03/11 10:19:28;;;;;;;34.58;16.23;;;6.40;99.90;;;;;;5001123;28;20048;-77
2021/03/11 10:21:58;;;;;;;33.17;15.20;;;6.40;99.90;;;;;;5009235;28;20041;-77
2021/03/11 10:24:33;;;;;;;32.10;16.15;;;6.40;99.90;;;;;;4982386;28;20169;-76
2021/03/11 10:26:59;;;;;;;33.27;15.50;;;6.40;99.90;;;;;;5017727;28;20146;-76
2021/03/11 10:29:28;;;;;;;31.70;16.20;;;6.40;99.90;;;;;;5016708;28;20046;-76
2021/03/11 10:32:05;;;;;;;27.65;14.65;;;6.50;99.90;;;;;;4993546;28;20062;-76
2021/03/11 10:34:47;;;;;;;32.72;16.80;;;6.60;99.90;;;;;;4997386;28;20486;-74
2021/03/11 10:37:27;;;;;;;33.33;14.75;;;6.80;99.90;;;;;;5000599;28;20485;-75
2021/03/11 10:39:58;;;;;;;26.52;14.27;;;7.00;99.90;;;;;;4996209;28;20907;-75
2021/03/11 10:42:37;;;;;;;24.10;12.70;;;7.20;99.90;;;;;;5007027;28;20026;-75
2021/03/11 10:45:04;;;;;;;27.02;13.10;;;7.50;99.90;;;;;;4983658;28;20029;-75
2021/03/11 10:47:30;;;;;;;26.40;12.15;;;7.80;99.90;;;;;;5012466;28;20030;-76
2021/03/11 10:49:56;;;;;;;21.23;12.02;;;8.10;99.90;;;;;;5009424;28;20445;-76
2021/03/11 10:52:22;;;;;;;21.20;10.77;;;8.20;99.90;;;;;;5006290;28;20033;-75
2021/03/11 10:54:48;;;;;;;20.55;10.98;;;8.20;99.90;;;;;;5018418;28;20140;-76
2021/03/11 10:57:18;;;;;;;21.52;11.57;;;8.30;99.90;;;;;;4999918;28;20536;-75
2021/03/11 10:59:48;;;;;;;19.13;10.80;;;8.40;99.90;;;;;;4981412;28;20076;-75
2021/03/11 11:02:14;;;;;;;22.50;11.50;;;8.60;99.90;;;;;;5013244;28;20041;-76
2021/03/11 11:04:40;;;;;;;26.55;13.77;;;8.60;99.90;;;;;;4991655;28;20039;-74
2021/03/11 11:07:07;;;;;;;26.77;13.77;;;8.70;99.90;;;;;;5007920;28;20033;-73
2021/03/11 11:09:32;;;;;;;21.80;11.82;;;8.70;99.90;;;;;;5009313;28;20034;-76
2021/03/11 11:11:58;;;;;;;21.30;11.60;;;9.00;99.90;;;;;;5018010;28;20036;-74
2021/03/11 11:14:24;;;;;;;22.98;10.57;;;9.20;99.90;;;;;;5016944;28;20029;-74
2021/03/11 11:16:50;;;;;;;24.10;10.65;;;9.70;99.90;;;;;;4998637;28;20128;-73
2021/03/11 11:19:15;;;;;;;14.38;8.70;;;9.80;99.90;;;;;;5013054;28;20088;-74
2021/03/11 11:21:41;;;;;;;19.23;10.45;;;9.70;99.90;;;;;;4994287;28;20038;-73
2021/03/11 11:24:07;;;;;;;21.95;10.35;;;9.40;99.90;;;;;;5017979;28;20041;-73
2021/03/11 11:26:33;;;;;;;23.45;10.80;;;9.40;99.90;;;;;;5014798;28;20029;-73
2021/03/11 11:28:59;;;;;;;17.75;10.45;;;9.40;99.90;;;;;;5006006;28;20044;-73
2021/03/11 11:31:24;;;;;;;16.75;9.48;;;9.50;99.90;;;;;;5016965;28;20064;-73
2021/03/11 11:33:50;;;;;;;18.30;10.07;;;9.60;99.90;;;;;;5005574;28;20022;-73
2021/03/11 11:36:15;;;;;;;17.83;9.40;;;9.60;99.90;;;;;;5012193;28;20577;-73
2021/03/11 11:38:41;;;;;;;16.75;8.55;;;9.70;99.90;;;;;;5014639;28;20037;-73
2021/03/11 11:41:07;;;;;;;17.05;9.48;;;10.00;99.90;;;;;;5015019;28;20037;-73
2021/03/11 11:43:33;;;;;;;25.48;9.07;;;10.10;99.90;;;;;;4999185;28;20060;-74
2021/03/11 11:45:59;;;;;;;14.07;8.75;;;10.50;99.90;;;;;;4989873;28;20764;-73
2021/03/11 11:48:24;;;;;;;17.48;8.55;;;10.80;99.90;;;;;;4998860;28;20037;-73
2021/03/11 11:50:53;;;;;;;15.02;7.90;;;11.10;99.90;;;;;;5005498;28;20034;-74
2021/03/11 11:53:21;;;;;;;14.88;6.95;;;11.20;99.90;;;;;;5015762;28;20083;-69
2021/03/11 11:55:47;;;;;;;13.23;7.75;;;11.40;99.90;;;;;;5014816;28;20030;-70
2021/03/11 11:58:12;;;;;;;10.25;6.63;;;11.70;99.90;;;;;;5006039;28;20087;-69
2021/03/11 12:00:38;;;;;;;12.80;6.32;;;11.90;99.90;;;;;;5015130;28;20048;-74
2021/03/11 12:03:04;;;;;;;13.82;6.85;;;12.20;99.90;;;;;;5011632;28;20038;-73
2021/03/11 12:05:30;;;;;;;14.63;6.25;;;12.30;99.90;;;;;;5001125;28;20473;-73
2021/03/11 12:07:55;;;;;;;9.93;6.20;;;12.50;99.90;;;;;;5002672;28;20037;-71
2021/03/11 12:10:21;;;;;;;9.23;5.80;;;12.80;99.90;;;;;;5015984;28;20037;-74
2021/03/11 12:12:47;;;;;;;12.27;6.03;;;12.70;99.90;;;;;;5016175;28;20784;-75
2021/03/11 12:15:13;;;;;;;12.23;6.43;;;12.50;99.90;;;;;;5014626;28;20033;-74
2021/03/11 12:17:38;;;;;;;9.90;5.80;;;12.50;99.90;;;;;;5016417;28;20155;-73
2021/03/11 12:20:05;;;;;;;11.25;6.35;;;12.10;99.90;;;;;;5011623;28;20038;-73
2021/03/11 12:22:30;;;;;;;9.05;5.90;;;11.90;99.90;;;;;;5007893;28;20044;-72
2021/03/11 12:24:56;;;;;;;10.18;6.30;;;11.70;99.90;;;;;;5006860;28;20034;-74
2021/03/11 12:27:24;;;;;;;7.85;5.15;;;11.60;99.90;;;;;;5013918;28;20033;-74
2021/03/11 12:29:54;;;;;;;10.10;5.90;;;11.40;99.90;;;;;;4994047;28;20647;-74
2021/03/11 12:32:20;;;;;;;10.32;5.95;;;11.40;99.90;;;;;;5011719;28;20120;-74
2021/03/11 12:34:48;;;;;;;10.50;5.55;;;11.40;99.90;;;;;;5010487;28;20026;-74
2021/03/11 12:37:13;;;;;;;9.27;5.70;;;11.30;99.90;;;;;;5016290;28;20045;-75
2021/03/11 12:39:39;;;;;;;8.35;5.90;;;11.00;99.90;;;;;;5016282;28;20505;-76
2021/03/11 12:42:06;;;;;;;8.35;5.53;;;10.80;99.90;;;;;;4976746;28;20040;-75
2021/03/11 12:44:32;;;;;;;9.68;5.32;;;10.80;99.90;;;;;;4996014;28;20038;-74
2021/03/11 12:46:57;;;;;;;11.43;4.82;;;10.90;99.90;;;;;;4992710;28;20195;-74